createdAt,value
2022-11-23T15:39:02.356Z,99432.23
2022-11-23T15:41:30.818Z,99433.42
2022-11-23T15:43:59.844Z,99431.54
2022-11-23T15:46:29.806Z,99431.02
2022-11-23T15:48:58.241Z,99429.14
2022-11-23T15:51:37.038Z,99430.66
2022-11-23T15:54:04.575Z,99430.84
2022-11-23T15:56:34.591Z,99432.91
2022-11-23T15:59:05.239Z,99435.11
2022-11-23T16:01:32.959Z,99435.45
2022-11-23T16:04:03.599Z,99435.80
2022-11-23T16:06:42.283Z,99441.25
2022-11-23T16:09:51.192Z,99442.11
2022-11-23T16:12:26.917Z,99439.73
2022-11-23T16:14:56.109Z,99442.29
2022-11-23T16:17:25.276Z,99448.09
2022-11-23T16:19:54.520Z,99450.14
2022-11-23T16:22:35.993Z,99453.73
2022-11-23T16:25:08.689Z,99455.29
2022-11-23T16:27:37.065Z,99455.63
2022-11-23T16:30:04.883Z,99455.79
2022-11-23T16:32:33.609Z,99460.73
2022-11-23T16:35:17.634Z,99456.30
2022-11-23T16:37:45.520Z,99456.31
2022-11-23T16:40:15.559Z,99454.77
2022-11-23T16:42:42.995Z,99452.55
2022-11-23T16:45:14.856Z,99452.21
2022-11-23T16:47:54.888Z,99454.60
2022-11-23T16:50:23.186Z,99448.27
2022-11-23T16:52:51.981Z,99440.94
2022-11-23T16:55:19.789Z,99437.35
2022-11-23T16:57:48.116Z,99443.66
2022-11-23T17:00:19.151Z,99445.02
2022-11-23T17:02:46.669Z,99449.98
2022-11-23T17:05:19.500Z,99449.63
2022-11-23T17:07:47.000Z,99445.88
2022-11-23T17:10:15.446Z,99446.04
2022-11-23T17:12:48.209Z,99449.28
2022-11-23T17:15:17.238Z,99451.16
2022-11-23T17:17:44.980Z,99448.09
2022-11-23T17:20:15.134Z,99449.27
2022-11-23T17:22:42.658Z,99448.09
2022-11-23T17:25:14.928Z,99445.86
2022-11-23T17:27:46.338Z,99444.33
2022-11-23T17:30:18.798Z,99446.39
2022-11-23T17:32:46.208Z,99443.66
2022-11-23T17:35:13.869Z,99445.20
2022-11-23T17:37:41.535Z,99444.86
2022-11-23T17:40:16.339Z,99451.87
2022-11-23T17:42:43.914Z,99450.66
2022-11-23T17:45:12.823Z,99448.10
2022-11-23T17:47:42.015Z,99450.14
2022-11-23T17:50:17.790Z,99451.34
2022-11-23T17:52:45.537Z,99453.55
2022-11-23T17:55:14.328Z,99454.24
2022-11-23T17:57:42.100Z,99459.70
2022-11-23T18:00:19.704Z,99461.76
2022-11-23T18:02:47.751Z,99459.02
2022-11-23T18:05:21.164Z,99459.54
2022-11-23T18:07:52.574Z,99461.75
2022-11-23T18:10:20.592Z,99468.06
2022-11-23T18:12:48.248Z,99466.19
2022-11-23T18:15:16.611Z,99464.30
2022-11-23T18:17:46.034Z,99463.98
2022-11-23T18:20:15.647Z,99461.41
2022-11-23T18:22:43.352Z,99460.56
2022-11-23T18:25:12.232Z,99457.66
2022-11-23T18:27:39.528Z,99454.23
2022-11-23T18:30:08.570Z,99457.99
2022-11-23T18:32:37.030Z,99451.00
2022-11-23T18:35:05.220Z,99449.81
2022-11-23T18:37:33.250Z,99449.97
2022-11-23T18:40:00.808Z,99447.93
2022-11-23T18:42:28.675Z,99452.55
2022-11-23T18:44:56.956Z,99452.19
2022-11-23T18:47:24.410Z,99452.18
2022-11-23T18:49:53.305Z,99453.36
2022-11-23T18:52:20.961Z,99450.98
2022-11-23T18:54:49.239Z,99447.73
2022-11-23T18:57:16.975Z,99447.23
2022-11-23T18:59:59.690Z,99453.02
2022-11-23T19:02:28.243Z,99454.59
2022-11-23T19:04:56.410Z,99447.59
2022-11-23T19:07:27.572Z,99447.77
